Time;durP1;ratioP1;P1;durP2;ratioP2;P2;SDS_P1;SDS_P2;PMS_P1;PMS_P2;Temp;Humidity;BMP_temperature;BMP_pressure;BME280_temperature;BME280_humidity;BME280_pressure;Samples;Min_cycle;Max_cycle;Signal;HPM_P1;HPM_P2
2020/12/17 00:00:01;;;;;;;8.87;7.97;;;;;;;5.22;85.84;95996.00;5109799;28;20212;-73
2020/12/17 00:02:26;;;;;;;8.50;7.70;;;;;;;5.27;85.46;95993.03;5091976;28;20249;-72
2020/12/17 00:04:53;;;;;;;8.53;7.63;;;;;;;5.38;84.71;95992.94;5092142;28;20226;-72
2020/12/17 00:07:19;;;;;;;9.03;7.83;;;;;;;5.36;84.77;95999.09;5112722;28;20191;-73
2020/12/17 00:09:45;;;;;;;10.43;7.93;;;;;;;5.30;85.09;95995.34;5112586;28;20210;-74
2020/12/17 00:12:11;;;;;;;8.43;7.63;;;;;;;5.22;84.84;95990.09;5092206;28;20204;-74
2020/12/17 00:14:37;;;;;;;9.00;8.10;;;;;;;5.22;85.41;95997.75;5091495;28;20679;-71
2020/12/17 00:17:03;;;;;;;8.23;7.43;;;;;;;5.27;85.76;95990.50;5107481;28;20192;-73
2020/12/17 00:19:29;;;;;;;8.33;7.53;;;;;;;5.40;85.09;95980.00;5092147;28;20199;-74
2020/12/17 00:21:55;;;;;;;8.60;7.70;;;;;;;5.34;84.75;95986.47;5108897;28;20800;-74
2020/12/17 00:24:21;;;;;;;11.53;9.03;;;;;;;5.30;84.84;95991.97;5111289;28;20230;-72
2020/12/17 00:26:47;;;;;;;21.23;9.10;;;;;;;5.20;85.16;95984.31;5095669;28;20211;-74
2020/12/17 00:29:13;;;;;;;9.40;8.40;;;;;;;5.11;86.33;96001.22;5092055;28;20199;-74
2020/12/17 00:31:39;;;;;;;9.80;8.20;;;;;;;5.06;86.77;95988.06;5103989;28;20199;-74
2020/12/17 00:34:05;;;;;;;12.90;8.90;;;;;;;5.04;87.17;95973.81;5091349;28;20709;-74
2020/12/17 00:36:31;;;;;;;9.37;8.37;;;;;;;4.96;87.49;95982.16;5092011;28;20217;-74
2020/12/17 00:38:57;;;;;;;10.23;8.30;;;;;;;4.91;87.88;95978.38;5091677;28;20283;-74
2020/12/17 00:41:23;;;;;;;44.83;9.77;;;;;;;4.74;88.31;95982.38;5095064;28;20192;-74
2020/12/17 00:43:49;;;;;;;53.97;11.70;;;;;;;4.66;88.42;95980.47;5091141;28;20294;-74
2020/12/17 00:46:16;;;;;;;8.10;7.30;;;;;;;4.66;88.57;95982.19;5092952;28;20683;-74
2020/12/17 00:48:42;;;;;;;36.80;8.73;;;;;;;4.67;88.89;95978.72;5091298;28;20200;-74
2020/12/17 00:51:08;;;;;;;8.50;7.53;;;;;;;4.64;89.13;95986.63;5097057;28;20195;-74
2020/12/17 00:53:34;;;;;;;10.37;8.23;;;;;;;4.74;88.79;95974.72;5111418;28;20199;-73
2020/12/17 00:56:01;;;;;;;8.07;7.27;;;;;;;4.79;88.36;95980.25;5102311;28;20584;-72
2020/12/17 00:58:27;;;;;;;8.63;7.73;;;;;;;4.79;88.74;95975.13;5090868;28;20200;-74
2020/12/17 01:00:54;;;;;;;12.57;8.07;;;;;;;4.73;88.22;95978.19;5098713;28;20195;-73
2020/12/17 01:03:20;;;;;;;10.00;8.17;;;;;;;4.68;88.65;95982.88;5111445;28;20203;-74
2020/12/17 01:05:46;;;;;;;8.40;7.30;;;;;;;4.72;88.90;95986.78;5101921;28;20714;-74
2020/12/17 01:08:11;;;;;;;8.50;7.70;;;;;;;4.77;88.18;95980.38;5090938;28;20229;-74
2020/12/17 01:10:37;;;;;;;14.70;7.60;;;;;;;4.81;87.39;95980.91;5098629;28;20187;-74
2020/12/17 01:13:04;;;;;;;9.27;7.57;;;;;;;4.75;87.78;95989.09;5110707;28;20682;-73
2020/12/17 01:15:30;;;;;;;8.13;7.40;;;;;;;4.75;88.13;95989.91;5104503;28;20211;-73
2020/12/17 01:17:56;;;;;;;10.03;7.30;;;;;;;4.68;88.07;95982.88;5091595;28;20282;-74
2020/12/17 01:20:22;;;;;;;11.93;7.80;;;;;;;4.49;89.28;95986.19;5096107;28;20187;-74
2020/12/17 01:22:52;;;;;;;8.40;7.60;;;;;;;4.49;89.28;95989.53;5110754;28;20206;-74
2020/12/17 01:25:18;;;;;;;27.63;8.47;;;;;;;4.38;90.45;95989.66;5104751;28;20688;-74
2020/12/17 01:27:44;;;;;;;10.37;7.43;;;;;;;4.40;90.07;95992.88;5091279;28;20257;-74
2020/12/17 01:30:10;;;;;;;7.77;7.07;;;;;;;4.52;89.91;96001.22;5094879;28;20195;-74
2020/12/17 01:32:36;;;;;;;9.00;8.07;;;;;;;4.65;89.13;95996.69;5110717;28;20199;-74
2020/12/17 01:35:03;;;;;;;9.03;8.13;;;;;;;4.69;88.23;96003.16;5094023;28;20227;-73
2020/12/17 01:37:29;;;;;;;8.43;7.63;;;;;;;4.66;88.35;96008.50;5110714;28;20662;-74
2020/12/17 01:39:55;;;;;;;13.50;8.03;;;;;;;4.53;88.64;96010.50;5093593;28;20196;-74
2020/12/17 01:42:21;;;;;;;9.67;7.83;;;;;;;4.62;88.56;96012.25;5090663;28;20223;-73
2020/12/17 01:44:47;;;;;;;8.97;8.07;;;;;;;4.60;88.57;96015.91;5105693;28;20723;-73
2020/12/17 01:47:14;;;;;;;10.13;7.87;;;;;;;4.63;87.79;96023.25;5091003;28;20196;-73
2020/12/17 01:49:40;;;;;;;7.90;7.10;;;;;;;4.75;87.63;96019.69;5104137;28;20787;-74
2020/12/17 01:52:06;;;;;;;7.33;6.63;;;;;;;4.80;86.13;96018.38;5110975;28;20200;-72
2020/12/17 01:54:32;;;;;;;31.07;8.53;;;;;;;4.73;86.26;96009.63;5097638;28;20200;-72
2020/12/17 01:57:00;;;;;;;12.93;7.63;;;;;;;4.57;87.57;96004.19;5109343;28;20736;-72
2020/12/17 01:59:28;;;;;;;8.93;7.43;;;;;;;4.63;87.57;95995.22;5099624;28;20895;-75
2020/12/17 02:01:55;;;;;;;23.30;8.47;;;;;;;4.54;87.10;96006.19;5090708;28;20295;-74
2020/12/17 02:04:24;;;;;;;10.37;7.50;;;;;;;4.52;87.87;95996.13;5100408;28;20739;-75
2020/12/17 02:06:51;;;;;;;10.33;7.40;;;;;;;4.54;88.15;95998.56;5093720;28;20710;-74
2020/12/17 02:09:18;;;;;;;8.00;7.20;;;;;;;4.55;87.61;96013.72;5101041;28;20678;-74
2020/12/17 02:11:51;;;;;;;7.43;6.33;;;;;;;4.51;87.15;96007.25;5114502;28;20209;-74
2020/12/17 02:14:18;;;;;;;7.03;6.30;;;;;;;4.61;86.73;96012.41;5105556;28;20196;-73
2020/12/17 02:16:44;;;;;;;14.50;7.20;;;;;;;4.62;85.82;96011.47;5095428;28;20220;-73
2020/12/17 02:19:10;;;;;;;29.27;8.23;;;;;;;4.49;86.34;95997.19;5101629;28;20192;-74
2020/12/17 02:21:37;;;;;;;7.07;6.37;;;;;;;4.47;87.08;96000.78;5101225;28;20667;-74
2020/12/17 02:24:03;;;;;;;16.43;7.50;;;;;;;4.35;87.26;96004.38;5113919;28;20238;-75
2020/12/17 02:26:29;;;;;;;9.30;6.70;;;;;;;4.27;88.17;95991.44;5097822;28;20244;-74
2020/12/17 02:28:55;;;;;;;15.47;7.67;;;;;;;4.18;88.82;95995.59;5094096;28;20204;-73
2020/12/17 02:31:24;;;;;;;20.23;7.73;;;;;;;4.25;88.67;96000.97;5108719;28;20221;-74
2020/12/17 02:33:50;;;;;;;19.40;7.50;;;;;;;4.16;89.04;96005.09;5105485;28;20196;-74
2020/12/17 02:36:19;;;;;;;14.27;7.43;;;;;;;4.09;89.53;96009.88;5108205;28;20584;-73
2020/12/17 02:38:45;;;;;;;26.83;8.00;;;;;;;3.92;90.57;96009.66;5107465;28;20200;-74
2020/12/17 02:41:11;;;;;;;7.53;6.77;;;;;;;3.88;91.54;96016.72;5093412;28;20204;-74
2020/12/17 02:43:38;;;;;;;10.33;7.10;;;;;;;4.08;90.67;96018.47;5098035;28;20648;-74
2020/12/17 02:46:04;;;;;;;19.27;6.93;;;;;;;4.24;89.16;96020.53;5101319;28;20273;-74
2020/12/17 02:48:30;;;;;;;17.70;6.67;;;;;;;4.30;88.43;96019.25;5093624;28;20659;-74
2020/12/17 02:50:56;;;;;;;11.37;6.80;;;;;;;4.22;88.32;96025.00;5093494;28;20230;-73
2020/12/17 02:53:22;;;;;;;8.93;6.33;;;;;;;4.30;88.17;96035.34;5092898;28;20254;-73
2020/12/17 02:55:48;;;;;;;7.13;5.90;;;;;;;4.37;87.85;96033.09;5093153;28;20376;-74
2020/12/17 02:58:14;;;;;;;6.80;6.20;;;;;;;4.37;87.70;96033.09;5093823;28;20804;-73
2020/12/17 03:00:44;;;;;;;6.53;5.90;;;;;;;4.44;87.07;96040.09;5113235;28;20204;-72
2020/12/17 03:03:09;;;;;;;6.53;5.93;;;;;;;4.43;86.43;96030.84;5095078;28;20686;-74
2020/12/17 03:05:35;;;;;;;20.23;6.97;;;;;;;4.38;85.42;96030.44;5100869;28;20215;-75
2020/12/17 03:08:01;;;;;;;24.07;7.00;;;;;;;4.33;86.14;96022.34;5113514;28;20200;-74
2020/12/17 03:10:27;;;;;;;6.30;5.70;;;;;;;4.33;86.87;96031.75;5107293;28;20223;-74
2020/12/17 03:12:53;;;;;;;9.77;6.50;;;;;;;4.33;85.59;96017.25;5092581;28;20204;-73
2020/12/17 03:15:19;;;;;;;11.17;6.20;;;;;;;4.26;85.77;96011.03;5098048;28;20210;-73
2020/12/17 03:17:46;;;;;;;5.67;5.07;;;;;;;4.26;85.92;96028.88;5114000;28;20210;-74
2020/12/17 03:20:12;;;;;;;11.77;5.97;;;;;;;4.28;85.11;96028.75;5111296;28;20324;-72
2020/12/17 03:22:40;;;;;;;17.50;6.93;;;;;;;4.17;85.89;96011.81;5112756;28;20211;-75
2020/12/17 03:25:08;;;;;;;13.90;6.53;;;;;;;4.03;86.94;96012.97;5107314;28;20220;-74
2020/12/17 03:27:34;;;;;;;9.63;6.60;;;;;;;4.01;87.21;96019.09;5093118;28;20200;-74
2020/12/17 03:30:00;;;;;;;7.20;6.50;;;;;;;4.08;87.85;96021.00;5100308;28;20202;-74
2020/12/17 03:32:26;;;;;;;24.13;6.57;;;;;;;4.02;87.58;96015.63;5112891;28;20230;-74
2020/12/17 03:34:53;;;;;;;6.33;5.73;;;;;;;4.11;87.57;96015.66;5106526;28;20212;-73
2020/12/17 03:37:19;;;;;;;6.23;5.63;;;;;;;4.24;86.74;96018.00;5093053;28;20575;-74
2020/12/17 03:39:45;;;;;;;6.80;6.10;;;;;;;4.30;86.26;96014.16;5093142;28;20196;-74
2020/12/17 03:42:10;;;;;;;6.23;5.60;;;;;;;4.38;85.40;96020.22;5094247;28;20200;-74
2020/12/17 03:44:36;;;;;;;6.57;5.87;;;;;;;4.40;85.47;96020.09;5108803;28;20597;-74
2020/12/17 03:47:02;;;;;;;8.90;6.07;;;;;;;4.47;84.89;96021.19;5093034;28;20200;-74
2020/12/17 03:49:28;;;;;;;6.70;6.03;;;;;;;4.47;85.19;96027.09;5072131;28;20569;-73
2020/12/17 03:51:55;;;;;;;7.73;6.00;;;;;;;4.47;84.80;96019.44;5071805;28;20201;-74
2020/12/17 03:54:21;;;;;;;17.60;6.20;;;;;;;4.28;85.33;96011.72;5108318;28;20536;-74
2020/12/17 03:56:47;;;;;;;11.27;7.00;;;;;;;4.21;86.65;96023.38;5096678;28;20223;-74
2020/12/17 03:59:13;;;;;;;6.60;6.00;;;;;;;4.22;87.45;96016.53;5112988;28;20256;-73
2020/12/17 04:01:39;;;;;;;7.17;6.47;;;;;;;4.16;88.13;96025.47;5109786;28;20214;-74
2020/12/17 04:04:05;;;;;;;7.17;6.47;;;;;;;4.15;88.45;96034.88;5091537;28;20283;-73
2020/12/17 04:06:30;;;;;;;9.43;6.40;;;;;;;4.21;88.08;96033.56;5110634;28;20223;-73
2020/12/17 04:08:57;;;;;;;18.73;7.07;;;;;;;4.25;87.68;96037.47;5112987;28;20214;-74
2020/12/17 04:11:23;;;;;;;9.30;6.53;;;;;;;4.31;87.47;96039.50;5097646;28;20199;-74
2020/12/17 04:13:49;;;;;;;6.50;5.90;;;;;;;4.35;87.28;96038.31;5111987;28;20282;-74
2020/12/17 04:16:15;;;;;;;7.10;6.03;;;;;;;4.40;87.02;96036.22;5095602;28;20285;-71
2020/12/17 04:18:41;;;;;;;16.93;6.53;;;;;;;4.38;86.46;96043.19;5093048;28;20200;-73
2020/12/17 04:21:07;;;;;;;6.87;6.17;;;;;;;4.41;86.28;96047.22;5107284;28;20200;-73
2020/12/17 04:23:35;;;;;;;6.47;5.87;;;;;;;4.48;86.07;96061.84;5111597;28;20199;-74
2020/12/17 04:26:02;;;;;;;7.07;6.47;;;;;;;4.58;85.37;96067.03;5099400;28;20234;-73
2020/12/17 04:28:28;;;;;;;10.20;6.43;;;;;;;4.63;85.02;96072.53;5111817;28;20629;-73
2020/12/17 04:30:55;;;;;;;6.30;5.70;;;;;;;4.64;83.90;96069.03;5099067;28;20195;-74
2020/12/17 04:33:21;;;;;;;7.60;6.80;;;;;;;4.68;84.05;96075.50;5090487;28;20618;-73
2020/12/17 04:35:47;;;;;;;6.93;6.23;;;;;;;4.62;83.92;96076.00;5103881;28;20208;-73
2020/12/17 04:38:13;;;;;;;7.43;6.60;;;;;;;4.59;84.04;96070.38;5111744;28;20199;-73
2020/12/17 04:40:38;;;;;;;6.80;6.10;;;;;;;4.51;83.83;96068.44;5101286;28;20261;-74
2020/12/17 04:43:05;;;;;;;6.57;5.97;;;;;;;4.50;83.96;96065.09;5091289;28;20257;-73
2020/12/17 04:45:32;;;;;;;7.10;6.40;;;;;;;4.57;83.36;96064.59;5097041;28;20227;-74
2020/12/17 04:48:05;;;;;;;8.30;5.73;;;;;;;4.59;83.19;96067.81;5091610;28;20667;-73
2020/12/17 04:50:32;;;;;;;8.80;5.73;;;;;;;4.60;82.85;96067.69;5100810;28;20218;-74
2020/12/17 04:53:00;;;;;;;6.73;6.03;;;;;;;4.47;82.89;96060.25;5095371;28;20617;-74
2020/12/17 04:55:29;;;;;;;22.40;6.67;;;;;;;4.32;83.31;96058.97;5102902;28;20218;-74
2020/12/17 04:57:58;;;;;;;6.23;5.63;;;;;;;4.30;83.63;96053.19;5112114;28;20199;-74
2020/12/17 05:00:25;;;;;;;30.43;7.77;;;;;;;4.22;84.25;96055.56;5098890;28;20686;-72
2020/12/17 05:02:55;;;;;;;7.90;6.60;;;;;;;4.10;85.13;96056.56;5099731;28;20552;-73
2020/12/17 05:05:22;;;;;;;6.97;6.27;;;;;;;4.08;85.47;96053.31;5090873;28;20269;-73
2020/12/17 05:07:48;;;;;;;35.67;7.60;;;;;;;4.09;85.55;96060.84;5100703;28;20199;-74
2020/12/17 05:10:13;;;;;;;9.07;5.83;;;;;;;4.14;85.87;96058.75;5111389;28;20206;-73
2020/12/17 05:12:39;;;;;;;14.63;6.57;;;;;;;4.21;85.42;96063.34;5101503;28;20708;-73
2020/12/17 05:15:05;;;;;;;7.10;6.40;;;;;;;4.16;85.12;96071.34;5107079;28;20220;-73
2020/12/17 05:17:32;;;;;;;31.03;7.80;;;;;;;4.15;85.15;96073.09;5091023;28;20200;-73
2020/12/17 05:19:58;;;;;;;7.27;6.57;;;;;;;4.16;86.03;96081.53;5094141;28;20203;-74
2020/12/17 05:22:25;;;;;;;9.13;6.97;;;;;;;4.25;86.07;96085.88;5104577;28;20192;-74
2020/12/17 05:24:51;;;;;;;7.53;6.70;;;;;;;4.33;85.32;96091.16;5090699;28;20242;-73
2020/12/17 05:27:17;;;;;;;7.27;6.53;;;;;;;4.39;84.51;96088.13;5111382;28;20267;-73
2020/12/17 05:29:44;;;;;;;7.60;6.73;;;;;;;4.42;84.67;96103.19;5111120;28;20565;-75
2020/12/17 05:32:18;;;;;;;7.13;6.43;;;;;;;4.39;84.26;96103.44;5106378;28;20192;-73
2020/12/17 05:34:44;;;;;;;7.70;6.40;;;;;;;4.43;83.85;96101.41;5099244;28;21017;-75
2020/12/17 05:37:11;;;;;;;6.53;5.93;;;;;;;4.47;83.12;96102.78;5089344;28;20200;-73
2020/12/17 05:39:42;;;;;;;6.60;5.80;;;;;;;4.45;82.83;96110.53;5092413;28;20215;-73
2020/12/17 05:42:12;;;;;;;6.50;5.90;;;;;;;4.39;83.18;96102.63;5089867;28;20219;-74
2020/12/17 05:44:38;;;;;;;31.63;7.67;;;;;;;4.28;83.08;96116.22;5098300;28;20674;-73
2020/12/17 05:47:04;;;;;;;16.73;7.20;;;;;;;4.19;84.23;96119.53;5100703;28;20202;-74
2020/12/17 05:49:32;;;;;;;9.93;6.40;;;;;;;4.10;84.64;96121.06;5092855;28;20769;-74
2020/12/17 05:52:11;;;;;;;10.90;6.17;;;;;;;4.18;85.18;96125.56;5092744;28;20201;-73
2020/12/17 05:54:40;;;;;;;6.50;5.90;;;;;;;4.16;85.77;96112.94;5077993;28;20208;-73
2020/12/17 05:57:07;;;;;;;7.07;6.37;;;;;;;4.28;85.22;96113.66;5099757;28;20226;-72
2020/12/17 05:59:33;;;;;;;8.50;6.43;;;;;;;4.16;84.80;96114.69;5105618;28;20200;-75
2020/12/17 06:02:15;;;;;;;6.57;5.80;;;;;;;4.16;85.34;96117.22;5109693;28;20196;-73
2020/12/17 06:04:43;;;;;;;7.73;5.80;;;;;;;4.27;84.93;96122.25;5086041;28;20214;-75
2020/12/17 06:07:14;;;;;;;10.03;5.90;;;;;;;4.34;83.56;96117.47;5093119;28;20196;-74
2020/12/17 06:09:50;;;;;;;11.03;6.03;;;;;;;4.31;83.26;96126.16;5094147;28;20204;-74
2020/12/17 06:12:19;;;;;;;8.63;5.77;;;;;;;4.37;83.48;96128.22;5083274;28;20191;-72
2020/12/17 06:14:47;;;;;;;6.80;6.10;;;;;;;4.43;83.47;96132.00;5105513;28;20558;-74
2020/12/17 06:17:22;;;;;;;6.63;5.90;;;;;;;4.43;83.16;96125.16;5100995;28;20191;-74
2020/12/17 06:19:48;;;;;;;6.80;6.10;;;;;;;4.39;82.76;96133.22;5099392;28;20196;-74
2020/12/17 06:22:22;;;;;;;6.20;5.60;;;;;;;4.42;83.02;96136.31;5098238;28;20245;-74
2020/12/17 06:24:52;;;;;;;5.80;5.20;;;;;;;4.30;82.04;96136.50;5104730;28;20223;-74
2020/12/17 06:27:25;;;;;;;6.13;5.07;;;;;;;4.23;82.52;96138.75;5103641;28;20587;-74
2020/12/17 06:30:01;;;;;;;6.83;5.30;;;;;;;4.26;82.37;96137.66;5109525;28;20282;-74
2020/12/17 06:32:29;;;;;;;6.40;5.80;;;;;;;4.30;82.65;96139.03;5099137;28;20199;-73
2020/12/17 06:34:58;;;;;;;6.00;5.43;;;;;;;4.29;82.28;96137.41;5099254;28;20216;-73
2020/12/17 06:37:25;;;;;;;14.23;10.93;;;;;;;4.29;82.59;96137.41;5101534;28;20615;-74
2020/12/17 06:39:51;;;;;;;7.50;6.80;;;;;;;4.29;82.80;96142.50;5093553;28;20663;-73
2020/12/17 06:42:34;;;;;;;9.27;6.80;;;;;;;4.28;82.46;96138.34;5098306;28;20192;-74
2020/12/17 06:45:00;;;;;;;6.83;6.13;;;;;;;4.24;82.62;96144.63;5102689;28;20306;-74
2020/12/17 06:47:28;;;;;;;6.80;6.10;;;;;;;4.18;82.86;96160.41;5108315;28;20611;-74
2020/12/17 06:49:54;;;;;;;15.23;6.20;;;;;;;4.22;82.27;96162.63;5107147;28;20262;-74
2020/12/17 06:52:20;;;;;;;6.37;5.77;;;;;;;4.21;83.08;96160.19;5101291;28;20203;-74
2020/12/17 06:54:51;;;;;;;7.63;5.33;;;;;;;4.24;82.70;96162.47;5087209;28;20732;-74
2020/12/17 06:57:17;;;;;;;7.00;5.30;;;;;;;4.24;82.41;96167.56;5102086;28;20199;-74
2020/12/17 07:00:08;;;;;;;5.60;5.10;;;;;;;4.20;82.06;96167.03;5097105;28;20192;-74
2020/12/17 07:02:39;;;;;;;10.10;5.13;;;;;;;4.18;81.33;96175.72;5080150;28;20196;-73
2020/12/17 07:05:05;;;;;;;5.97;5.37;;;;;;;4.18;81.27;96181.63;5103527;28;20384;-74
2020/12/17 07:07:44;;;;;;;16.70;13.70;;;;;;;4.20;81.58;96179.75;5111947;28;20236;-74
2020/12/17 07:10:25;;;;;;;15.00;12.07;;;;;;;4.29;81.51;96188.41;5093135;28;20192;-74
2020/12/17 07:12:54;;;;;;;6.60;6.00;;;;;;;4.28;81.21;96189.31;5101454;28;20196;-74
2020/12/17 07:15:36;;;;;;;5.47;4.97;;;;;;;4.31;80.76;96202.63;5099343;28;20216;-74
2020/12/17 07:18:22;;;;;;;6.40;5.10;;;;;;;4.32;80.02;96211.09;5109293;28;20196;-74
2020/12/17 07:20:52;;;;;;;5.27;4.77;;;;;;;4.29;80.17;96207.03;5100814;28;20195;-73
2020/12/17 07:23:19;;;;;;;7.20;5.37;;;;;;;4.24;79.19;96213.44;5100765;28;20223;-76
2020/12/17 07:25:49;;;;;;;6.43;4.80;;;;;;;4.58;100.00;96209.00;5091097;28;20232;-74
2020/12/17 07:28:15;;;;;;;4.73;4.23;;;;;;;5.10;100.00;96211.44;5094225;28;20287;-74
2020/12/17 07:30:54;;;;;;;5.83;4.27;;;;;;;5.53;100.00;96213.78;5104935;28;20287;-74
2020/12/17 07:33:49;;;;;;;6.47;4.37;;;;;;;5.86;92.03;96212.63;5103616;28;20711;-74
2020/12/17 07:36:16;;;;;;;5.17;4.60;;;;;;;6.11;93.10;96216.47;5098520;28;20212;-74
2020/12/17 07:39:07;;;;;;;4.30;3.90;;;;;;;6.14;83.30;96211.09;5099221;28;20196;-74
2020/12/17 07:41:36;;;;;;;4.40;4.00;;;;;;;6.09;78.68;96210.69;5097583;28;20215;-74
2020/12/17 07:44:03;;;;;;;5.00;4.50;;;;;;;5.89;76.04;96211.59;5104204;28;20192;-75
2020/12/17 07:46:37;;;;;;;4.80;4.40;;;;;;;5.60;74.28;96213.22;5106182;28;20211;-75
2020/12/17 07:49:22;;;;;;;4.43;4.13;;;;;;;5.24;74.64;96212.03;5101797;28;20199;-75
2020/12/17 07:51:49;;;;;;;5.73;5.07;;;;;;;5.06;75.45;96216.94;5089775;28;20192;-74
2020/12/17 07:54:19;;;;;;;5.77;5.27;;;;;;;4.96;76.40;96218.63;5107591;28;20234;-73
2020/12/17 07:56:47;;;;;;;4.87;4.47;;;;;;;4.90;76.25;96214.84;5095055;28;20346;-74
2020/12/17 07:59:15;;;;;;;5.00;4.60;;;;;;;4.89;77.32;96222.63;5103800;28;20658;-74
2020/12/17 08:01:41;;;;;;;5.07;4.67;;;;;;;4.81;77.17;96224.03;5095242;28;20203;-73
2020/12/17 08:04:08;;;;;;;5.83;4.87;;;;;;;4.74;77.32;96219.56;5100388;28;20199;-73
2020/12/17 08:06:34;;;;;;;4.53;4.10;;;;;;;4.69;78.11;96221.69;5108474;28;20690;-74
2020/12/17 08:09:01;;;;;;;5.13;4.73;;;;;;;4.69;77.75;96221.69;5094310;28;20207;-74
2020/12/17 08:11:27;;;;;;;5.00;4.60;;;;;;;4.71;77.86;96230.84;5105727;28;20194;-73
2020/12/17 08:14:01;;;;;;;5.03;4.63;;;;;;;4.71;77.54;96235.94;5094173;28;20200;-73
2020/12/17 08:16:28;;;;;;;5.23;4.67;;;;;;;4.76;77.71;96227.91;5105860;28;20211;-74
2020/12/17 08:18:58;;;;;;;5.07;4.57;;;;;;;4.84;77.15;96230.63;5100522;28;20244;-74
2020/12/17 08:21:25;;;;;;;5.40;4.90;;;;;;;4.82;76.82;96229.94;5097418;28;20675;-74
2020/12/17 08:23:52;;;;;;;4.87;4.47;;;;;;;4.88;76.71;96236.31;5107678;28;20198;-74
2020/12/17 08:26:20;;;;;;;5.50;5.00;;;;;;;4.92;76.17;96237.69;5091790;28;20223;-73
2020/12/17 08:28:48;;;;;;;4.57;4.17;;;;;;;4.81;76.44;96241.91;5099927;28;20202;-74
2020/12/17 08:31:16;;;;;;;5.10;4.70;;;;;;;4.90;76.50;96234.44;5099014;28;20279;-74
2020/12/17 08:33:44;;;;;;;4.83;4.43;;;;;;;4.98;76.54;96247.38;5107258;28;20210;-73
2020/12/17 08:36:12;;;;;;;5.77;4.77;;;;;;;5.07;76.41;96242.31;5107627;28;20277;-73
2020/12/17 08:38:38;;;;;;;6.67;4.60;;;;;;;5.18;76.02;96252.47;5098762;28;20188;-73
2020/12/17 08:41:06;;;;;;;6.07;5.20;;;;;;;5.12;75.87;96241.94;5097153;28;20679;-74
2020/12/17 08:43:46;;;;;;;7.77;4.67;;;;;;;5.27;75.44;96250.88;5093900;28;20196;-76
2020/12/17 08:46:16;;;;;;;5.13;4.70;;;;;;;5.24;75.12;96253.69;5089137;28;20271;-75
2020/12/17 08:48:43;;;;;;;4.77;3.80;;;;;;;5.71;98.08;96262.50;5103890;28;20208;-75
2020/12/17 08:51:11;;;;;;;4.60;4.20;;;;;;;6.14;81.21;96269.91;5090550;28;20204;-73
2020/12/17 08:53:42;;;;;;;12.93;11.27;;;;;;;6.13;75.68;96265.72;5097103;28;20196;-74
2020/12/17 08:56:13;;;;;;;8.53;7.63;;;;;;;5.99;74.02;96267.81;5091863;28;20231;-72
2020/12/17 08:58:47;;;;;;;5.63;5.13;;;;;;;5.92;74.29;96261.66;5091963;28;20368;-74
2020/12/17 09:01:15;;;;;;;5.37;4.87;;;;;;;5.88;74.05;96268.72;5111299;28;20199;-75
2020/12/17 09:03:46;;;;;;;5.20;4.30;;;;;;;5.95;74.26;96280.09;5105630;28;20200;-73
2020/12/17 09:06:13;;;;;;;4.27;3.97;;;;;;;5.96;73.99;96279.16;5094781;28;20219;-74
2020/12/17 09:08:39;;;;;;;4.33;3.93;;;;;;;6.00;73.47;96274.56;5091370;28;20196;-73
2020/12/17 09:11:05;;;;;;;4.33;4.00;;;;;;;6.03;73.07;96281.97;5090190;28;20582;-74
2020/12/17 09:13:31;;;;;;;6.00;3.77;;;;;;;5.93;73.28;96283.72;5104567;28;20197;-74
2020/12/17 09:15:59;;;;;;;4.33;3.93;;;;;;;6.09;73.17;96289.13;5107191;28;20211;-73
2020/12/17 09:18:27;;;;;;;4.07;3.77;;;;;;;6.30;72.62;96291.59;5103157;28;20917;-74
2020/12/17 09:21:11;;;;;;;3.97;3.67;;;;;;;6.36;72.41;96294.41;5109688;28;20187;-74
2020/12/17 09:23:37;;;;;;;4.00;3.70;;;;;;;6.42;71.48;96293.06;5100563;28;20239;-74
2020/12/17 09:26:13;;;;;;;4.13;3.77;;;;;;;6.45;71.25;96288.50;5093476;28;20224;-74
2020/12/17 09:28:49;;;;;;;7.03;3.73;;;;;;;6.44;71.31;96292.00;5098440;28;20203;-73
2020/12/17 09:31:27;;;;;;;4.30;3.90;;;;;;;6.55;71.01;96285.94;5100595;28;20226;-74
2020/12/17 09:34:09;;;;;;;6.03;3.83;;;;;;;6.70;70.14;96301.72;5108540;28;20300;-74
2020/12/17 09:36:36;;;;;;;17.50;14.13;;;;;;;6.70;70.64;96299.97;5102295;28;20225;-74
2020/12/17 09:39:06;;;;;;;17.90;13.10;;;;;;;6.62;69.95;96294.69;5106891;28;20199;-75
2020/12/17 09:41:32;;;;;;;6.47;5.87;;;;;;;6.59;70.34;96294.97;5103569;28;20282;-73
2020/12/17 09:43:58;;;;;;;4.30;4.00;;;;;;;6.67;70.16;96299.41;5096951;28;20682;-73
2020/12/17 09:46:24;;;;;;;4.43;4.03;;;;;;;6.73;69.87;96298.88;5107551;28;20215;-74
2020/12/17 09:48:50;;;;;;;4.00;3.70;;;;;;;6.75;70.07;96296.97;5098205;28;20574;-74
2020/12/17 09:51:21;;;;;;;4.17;3.87;;;;;;;6.66;69.13;96292.69;5095047;28;20556;-74
2020/12/17 09:54:00;;;;;;;4.57;3.80;;;;;;;6.67;69.47;96294.31;5095257;28;20197;-74
2020/12/17 09:56:26;;;;;;;4.30;3.97;;;;;;;6.69;70.06;96287.31;5091573;28;20756;-74
2020/12/17 09:58:52;;;;;;;7.10;6.40;;;;;;;6.59;70.96;96289.84;5093312;28;20192;-76
2020/12/17 10:01:18;;;;;;;7.60;6.80;;;;;;;6.65;71.57;96291.88;5107039;28;20701;-74
2020/12/17 10:03:43;;;;;;;5.17;4.67;;;;;;;6.65;70.85;96285.94;5101668;28;20212;-73
2020/12/17 10:06:09;;;;;;;4.77;4.37;;;;;;;6.62;70.42;96284.47;5098714;28;20215;-76
2020/12/17 10:08:36;;;;;;;5.00;4.37;;;;;;;6.74;70.24;96290.25;5107295;28;20222;-76
2020/12/17 10:11:02;;;;;;;4.23;3.87;;;;;;;6.88;69.97;96292.41;5100208;28;20195;-75
2020/12/17 10:13:29;;;;;;;4.27;3.97;;;;;;;7.12;69.95;96284.31;5093102;28;20203;-74
2020/12/17 10:15:54;;;;;;;4.40;4.00;;;;;;;7.18;69.24;96286.28;5103896;28;20219;-74
2020/12/17 10:18:20;;;;;;;4.83;4.43;;;;;;;7.26;68.42;96286.41;5109395;28;20203;-74
2020/12/17 10:20:46;;;;;;;5.13;4.63;;;;;;;7.41;68.40;96287.59;5102494;28;20200;-75
2020/12/17 10:23:12;;;;;;;5.20;4.67;;;;;;;7.34;67.82;96290.81;5105358;28;20248;-74
2020/12/17 10:25:39;;;;;;;66.33;48.60;;;;;;;7.23;69.07;96290.06;5092285;28;20250;-74
2020/12/17 10:28:05;;;;;;;22.40;18.30;;;;;;;7.40;69.86;96298.78;5094251;28;20219;-74
2020/12/17 10:30:31;;;;;;;7.37;6.60;;;;;;;7.60;69.27;96292.66;5105374;28;20659;-74
2020/12/17 10:32:57;;;;;;;9.13;5.30;;;;;;;7.81;68.15;96281.38;5103233;28;20202;-74
2020/12/17 10:35:23;;;;;;;5.80;4.60;;;;;;;7.94;67.32;96290.34;5096417;28;20212;-75
2020/12/17 10:37:49;;;;;;;4.80;4.40;;;;;;;8.04;67.47;96287.72;5110065;28;20281;-75
2020/12/17 10:40:15;;;;;;;10.60;8.13;;;;;;;8.13;67.26;96286.84;5105777;28;21993;-74
2020/12/17 10:42:42;;;;;;;9.57;6.90;;;;;;;8.17;67.32;96295.88;5105361;28;20548;-74
2020/12/17 10:45:09;;;;;;;8.43;5.90;;;;;;;8.20;67.17;96293.03;5103977;28;20287;-74
2020/12/17 10:47:36;;;;;;;6.63;5.97;;;;;;;8.38;66.93;96287.16;5108851;28;20203;-74
2020/12/17 10:50:04;;;;;;;5.57;5.07;;;;;;;8.47;65.99;96284.50;5096627;28;20281;-76
2020/12/17 10:52:30;;;;;;;6.60;5.37;;;;;;;8.49;66.16;96287.72;5099184;28;20199;-75
2020/12/17 10:54:56;;;;;;;9.00;5.80;;;;;;;8.58;65.58;96286.06;5101232;28;20199;-74
2020/12/17 10:57:22;;;;;;;9.57;6.20;;;;;;;8.63;65.01;96289.81;5098757;28;20199;-74
2020/12/17 10:59:48;;;;;;;6.60;5.97;;;;;;;8.60;65.06;96284.97;5106891;28;20199;-74
2020/12/17 11:02:15;;;;;;;8.93;5.77;;;;;;;8.65;65.44;96285.34;5096836;28;20225;-73
2020/12/17 11:04:41;;;;;;;6.77;6.17;;;;;;;8.50;66.42;96283.41;5104564;28;20203;-74
2020/12/17 11:07:07;;;;;;;6.67;5.80;;;;;;;8.65;66.71;96272.50;5104196;28;20219;-74
2020/12/17 11:09:33;;;;;;;7.97;6.17;;;;;;;8.76;66.54;96275.78;5108521;28;20198;-73
2020/12/17 11:11:58;;;;;;;9.17;6.33;;;;;;;8.93;66.27;96267.25;5100116;28;20264;-74
2020/12/17 11:14:24;;;;;;;7.57;6.20;;;;;;;8.98;65.61;96273.56;5100580;28;20715;-74
2020/12/17 11:16:52;;;;;;;7.97;6.27;;;;;;;9.12;65.81;96276.53;5103899;28;20211;-74
2020/12/17 11:19:18;;;;;;;8.47;5.60;;;;;;;9.17;64.71;96274.31;5105934;28;20285;-74
2020/12/17 11:21:45;;;;;;;7.93;5.53;;;;;;;9.27;65.00;96275.81;5095983;28;20624;-74
2020/12/17 11:24:12;;;;;;;5.60;5.07;;;;;;;9.39;67.82;96273.81;5105220;28;20200;-73
2020/12/17 11:26:41;;;;;;;6.83;6.10;;;;;;;9.66;70.28;96271.06;5100904;28;20227;-74
2020/12/17 11:29:07;;;;;;;9.57;6.47;;;;;;;9.94;69.51;96271.66;5105754;28;20223;-75
2020/12/17 11:31:33;;;;;;;7.07;5.47;;;;;;;9.84;63.28;96267.59;5110545;28;20214;-74
2020/12/17 11:34:00;;;;;;;8.20;5.30;;;;;;;9.83;68.71;96269.34;5094725;28;20397;-74
2020/12/17 11:36:26;;;;;;;7.70;5.40;;;;;;;10.07;66.84;96270.41;5104317;28;20552;-74
2020/12/17 11:38:53;;;;;;;29.53;22.20;;;;;;;10.22;64.37;96266.31;5096227;28;20210;-74
2020/12/17 11:41:19;;;;;;;7.60;6.50;;;;;;;10.19;62.43;96259.72;5098744;28;20196;-75